sensor_id;sensor_type;location;lat;lon;timestamp;P1;durP1;ratioP1;P2;durP2;ratioP2
75009;SDS011;63564;46.840;18.336;2023-06-22T00:02:10;23.23;;;12.93;;
75009;SDS011;63564;46.840;18.336;2023-06-22T00:05:10;21.70;;;12.10;;
75009;SDS011;63564;46.840;18.336;2023-06-22T00:08:11;19.85;;;12.43;;
75009;SDS011;63564;46.840;18.336;2023-06-22T00:11:11;22.30;;;12.90;;
75009;SDS011;63564;46.840;18.336;2023-06-22T00:14:12;20.73;;;12.10;;
75009;SDS011;63564;46.840;18.336;2023-06-22T00:17:12;20.45;;;12.85;;
75009;SDS011;63564;46.840;18.336;2023-06-22T00:20:13;20.07;;;12.10;;
75009;SDS011;63564;46.840;18.336;2023-06-22T00:23:14;20.77;;;12.50;;
75009;SDS011;63564;46.840;18.336;2023-06-22T00:26:15;24.17;;;13.23;;
75009;SDS011;63564;46.840;18.336;2023-06-22T00:29:17;22.83;;;12.73;;
75009;SDS011;63564;46.840;18.336;2023-06-22T00:32:18;22.73;;;13.15;;
75009;SDS011;63564;46.840;18.336;2023-06-22T00:35:19;22.67;;;12.87;;
75009;SDS011;63564;46.840;18.336;2023-06-22T00:38:19;20.93;;;12.73;;
75009;SDS011;63564;46.840;18.336;2023-06-22T00:41:19;21.07;;;12.00;;
75009;SDS011;63564;46.840;18.336;2023-06-22T00:44:20;21.85;;;12.88;;
75009;SDS011;63564;46.840;18.336;2023-06-22T00:47:20;20.07;;;12.17;;
75009;SDS011;63564;46.840;18.336;2023-06-22T00:50:22;18.30;;;11.00;;
75009;SDS011;63564;46.840;18.336;2023-06-22T00:53:23;20.52;;;11.57;;
75009;SDS011;63564;46.840;18.336;2023-06-22T00:56:23;18.30;;;10.87;;
75009;SDS011;63564;46.840;18.336;2023-06-22T00:59:24;22.25;;;10.20;;
75009;SDS011;63564;46.840;18.336;2023-06-22T01:02:26;18.98;;;11.35;;
75009;SDS011;63564;46.840;18.336;2023-06-22T01:05:26;22.80;;;12.07;;
75009;SDS011;63564;46.840;18.336;2023-06-22T01:11:57;20.23;;;10.77;;
75009;SDS011;63564;46.840;18.336;2023-06-22T01:15:08;19.80;;;11.05;;
75009;SDS011;63564;46.840;18.336;2023-06-22T01:18:15;21.45;;;11.32;;
75009;SDS011;63564;46.840;18.336;2023-06-22T01:21:19;22.23;;;11.45;;
75009;SDS011;63564;46.840;18.336;2023-06-22T01:30:54;16.88;;;8.70;;
75009;SDS011;63564;46.840;18.336;2023-06-22T01:34:04;19.75;;;10.13;;
75009;SDS011;63564;46.840;18.336;2023-06-22T01:37:06;20.50;;;11.75;;
75009;SDS011;63564;46.840;18.336;2023-06-22T01:40:07;16.52;;;9.15;;
75009;SDS011;63564;46.840;18.336;2023-06-22T01:43:09;17.00;;;9.17;;
75009;SDS011;63564;46.840;18.336;2023-06-22T01:46:09;15.57;;;8.98;;
75009;SDS011;63564;46.840;18.336;2023-06-22T01:49:11;15.60;;;8.48;;
75009;SDS011;63564;46.840;18.336;2023-06-22T01:52:12;13.77;;;7.90;;
75009;SDS011;63564;46.840;18.336;2023-06-22T01:55:12;15.57;;;8.35;;
75009;SDS011;63564;46.840;18.336;2023-06-22T01:58:13;14.70;;;8.50;;
75009;SDS011;63564;46.840;18.336;2023-06-22T02:01:14;13.60;;;8.20;;
75009;SDS011;63564;46.840;18.336;2023-06-22T02:04:21;18.55;;;9.00;;
75009;SDS011;63564;46.840;18.336;2023-06-22T02:07:31;17.25;;;9.10;;
75009;SDS011;63564;46.840;18.336;2023-06-22T02:10:37;15.73;;;8.57;;
75009;SDS011;63564;46.840;18.336;2023-06-22T02:13:41;16.05;;;9.05;;
75009;SDS011;63564;46.840;18.336;2023-06-22T02:16:43;19.77;;;9.57;;
75009;SDS011;63564;46.840;18.336;2023-06-22T02:19:44;16.15;;;9.35;;
75009;SDS011;63564;46.840;18.336;2023-06-22T02:22:44;15.43;;;9.33;;
75009;SDS011;63564;46.840;18.336;2023-06-22T02:25:45;19.73;;;10.23;;
75009;SDS011;63564;46.840;18.336;2023-06-22T02:28:45;17.57;;;9.97;;
75009;SDS011;63564;46.840;18.336;2023-06-22T02:31:46;20.67;;;10.07;;
75009;SDS011;63564;46.840;18.336;2023-06-22T02:34:46;17.37;;;9.77;;
75009;SDS011;63564;46.840;18.336;2023-06-22T02:37:47;18.88;;;10.07;;
75009;SDS011;63564;46.840;18.336;2023-06-22T02:40:51;18.33;;;9.70;;
75009;SDS011;63564;46.840;18.336;2023-06-22T02:43:52;16.70;;;9.63;;
75009;SDS011;63564;46.840;18.336;2023-06-22T02:46:52;17.80;;;10.03;;
75009;SDS011;63564;46.840;18.336;2023-06-22T02:49:54;17.83;;;9.57;;
75009;SDS011;63564;46.840;18.336;2023-06-22T02:52:54;24.80;;;11.00;;
75009;SDS011;63564;46.840;18.336;2023-06-22T02:55:55;18.77;;;10.80;;
75009;SDS011;63564;46.840;18.336;2023-06-22T02:58:55;20.60;;;10.60;;
75009;SDS011;63564;46.840;18.336;2023-06-22T03:02:01;18.02;;;10.18;;
75009;SDS011;63564;46.840;18.336;2023-06-22T03:05:02;20.15;;;10.32;;
75009;SDS011;63564;46.840;18.336;2023-06-22T03:08:04;19.05;;;10.23;;
75009;SDS011;63564;46.840;18.336;2023-06-22T03:11:04;18.97;;;10.47;;
75009;SDS011;63564;46.840;18.336;2023-06-22T03:14:04;17.60;;;10.13;;
75009;SDS011;63564;46.840;18.336;2023-06-22T03:17:05;19.30;;;9.97;;
75009;SDS011;63564;46.840;18.336;2023-06-22T03:20:06;20.67;;;10.20;;
75009;SDS011;63564;46.840;18.336;2023-06-22T03:23:09;18.70;;;9.98;;
75009;SDS011;63564;46.840;18.336;2023-06-22T03:26:09;19.87;;;10.40;;
75009;SDS011;63564;46.840;18.336;2023-06-22T03:29:10;19.70;;;10.33;;
75009;SDS011;63564;46.840;18.336;2023-06-22T03:32:11;18.73;;;9.52;;
75009;SDS011;63564;46.840;18.336;2023-06-22T03:35:11;19.17;;;10.43;;
75009;SDS011;63564;46.840;18.336;2023-06-22T03:38:13;22.65;;;10.38;;
75009;SDS011;63564;46.840;18.336;2023-06-22T03:41:14;21.40;;;10.37;;
75009;SDS011;63564;46.840;18.336;2023-06-22T03:44:14;18.70;;;10.13;;
75009;SDS011;63564;46.840;18.336;2023-06-22T03:47:15;22.33;;;10.37;;
75009;SDS011;63564;46.840;18.336;2023-06-22T03:50:16;19.00;;;9.40;;
75009;SDS011;63564;46.840;18.336;2023-06-22T03:53:17;19.43;;;9.77;;
75009;SDS011;63564;46.840;18.336;2023-06-22T03:56:18;17.35;;;10.20;;
75009;SDS011;63564;46.840;18.336;2023-06-22T03:59:20;17.00;;;8.85;;
75009;SDS011;63564;46.840;18.336;2023-06-22T04:02:20;18.13;;;9.40;;
75009;SDS011;63564;46.840;18.336;2023-06-22T04:05:21;17.53;;;9.27;;
75009;SDS011;63564;46.840;18.336;2023-06-22T04:08:21;20.33;;;10.23;;
75009;SDS011;63564;46.840;18.336;2023-06-22T04:11:21;17.57;;;9.33;;
75009;SDS011;63564;46.840;18.336;2023-06-22T04:14:22;18.13;;;9.30;;
75009;SDS011;63564;46.840;18.336;2023-06-22T04:17:22;17.97;;;9.50;;
75009;SDS011;63564;46.840;18.336;2023-06-22T04:20:24;19.20;;;10.02;;
75009;SDS011;63564;46.840;18.336;2023-06-22T04:23:28;19.93;;;10.17;;
75009;SDS011;63564;46.840;18.336;2023-06-22T04:26:28;20.95;;;11.13;;
75009;SDS011;63564;46.840;18.336;2023-06-22T04:29:29;22.10;;;10.83;;
75009;SDS011;63564;46.840;18.336;2023-06-22T04:32:30;20.92;;;11.10;;
75009;SDS011;63564;46.840;18.336;2023-06-22T04:35:30;18.10;;;9.53;;
75009;SDS011;63564;46.840;18.336;2023-06-22T04:38:30;19.53;;;9.70;;
75009;SDS011;63564;46.840;18.336;2023-06-22T04:41:34;20.02;;;9.90;;
75009;SDS011;63564;46.840;18.336;2023-06-22T04:44:41;17.60;;;8.87;;
75009;SDS011;63564;46.840;18.336;2023-06-22T04:47:42;18.83;;;9.07;;
75009;SDS011;63564;46.840;18.336;2023-06-22T04:50:42;14.77;;;7.90;;
75009;SDS011;63564;46.840;18.336;2023-06-22T04:53:44;18.95;;;8.90;;
75009;SDS011;63564;46.840;18.336;2023-06-22T04:56:44;16.47;;;8.23;;
75009;SDS011;63564;46.840;18.336;2023-06-22T04:59:46;16.48;;;8.68;;
75009;SDS011;63564;46.840;18.336;2023-06-22T05:02:47;15.70;;;7.72;;
75009;SDS011;63564;46.840;18.336;2023-06-22T05:05:47;13.97;;;7.30;;
75009;SDS011;63564;46.840;18.336;2023-06-22T05:08:48;14.33;;;7.73;;
75009;SDS011;63564;46.840;18.336;2023-06-22T05:11:48;15.27;;;8.23;;
75009;SDS011;63564;46.840;18.336;2023-06-22T05:14:49;15.27;;;7.43;;
75009;SDS011;63564;46.840;18.336;2023-06-22T05:17:49;16.83;;;8.30;;
75009;SDS011;63564;46.840;18.336;2023-06-22T05:20:49;12.98;;;6.97;;
75009;SDS011;63564;46.840;18.336;2023-06-22T05:23:50;15.27;;;7.93;;
75009;SDS011;63564;46.840;18.336;2023-06-22T05:26:51;15.87;;;7.70;;
75009;SDS011;63564;46.840;18.336;2023-06-22T05:29:52;15.25;;;7.35;;
75009;SDS011;63564;46.840;18.336;2023-06-22T05:32:52;15.63;;;7.80;;
75009;SDS011;63564;46.840;18.336;2023-06-22T05:35:55;15.70;;;8.07;;
75009;SDS011;63564;46.840;18.336;2023-06-22T05:38:56;15.57;;;7.82;;
75009;SDS011;63564;46.840;18.336;2023-06-22T05:41:58;18.57;;;8.97;;
75009;SDS011;63564;46.840;18.336;2023-06-22T05:44:58;16.77;;;8.48;;
75009;SDS011;63564;46.840;18.336;2023-06-22T05:47:59;15.73;;;8.77;;
75009;SDS011;63564;46.840;18.336;2023-06-22T05:50:59;16.47;;;9.33;;
75009;SDS011;63564;46.840;18.336;2023-06-22T05:54:00;15.10;;;8.77;;
75009;SDS011;63564;46.840;18.336;2023-06-22T05:57:00;16.57;;;9.13;;
75009;SDS011;63564;46.840;18.336;2023-06-22T06:00:00;17.77;;;9.03;;
75009;SDS011;63564;46.840;18.336;2023-06-22T06:03:01;18.73;;;10.00;;
75009;SDS011;63564;46.840;18.336;2023-06-22T06:06:04;17.87;;;8.77;;
75009;SDS011;63564;46.840;18.336;2023-06-22T06:09:04;15.63;;;9.00;;
75009;SDS011;63564;46.840;18.336;2023-06-22T06:12:05;16.60;;;9.23;;
75009;SDS011;63564;46.840;18.336;2023-06-22T06:15:06;14.20;;;8.45;;
75009;SDS011;63564;46.840;18.336;2023-06-22T06:18:07;16.53;;;9.57;;
75009;SDS011;63564;46.840;18.336;2023-06-22T06:21:07;15.53;;;8.83;;
75009;SDS011;63564;46.840;18.336;2023-06-22T06:24:08;18.07;;;10.07;;
75009;SDS011;63564;46.840;18.336;2023-06-22T06:27:08;13.67;;;8.63;;
75009;SDS011;63564;46.840;18.336;2023-06-22T06:30:12;17.13;;;9.67;;
75009;SDS011;63564;46.840;18.336;2023-06-22T06:33:14;18.10;;;9.73;;
75009;SDS011;63564;46.840;18.336;2023-06-22T06:36:15;17.47;;;9.60;;
75009;SDS011;63564;46.840;18.336;2023-06-22T06:39:16;17.45;;;9.43;;
75009;SDS011;63564;46.840;18.336;2023-06-22T06:42:16;15.40;;;8.67;;
75009;SDS011;63564;46.840;18.336;2023-06-22T06:45:22;14.77;;;9.00;;
75009;SDS011;63564;46.840;18.336;2023-06-22T06:48:23;16.25;;;9.65;;
75009;SDS011;63564;46.840;18.336;2023-06-22T06:51:24;16.00;;;10.13;;
75009;SDS011;63564;46.840;18.336;2023-06-22T06:54:25;15.47;;;9.37;;
75009;SDS011;63564;46.840;18.336;2023-06-22T06:57:25;15.23;;;10.03;;
75009;SDS011;63564;46.840;18.336;2023-06-22T07:00:30;16.90;;;10.00;;
75009;SDS011;63564;46.840;18.336;2023-06-22T07:03:30;16.17;;;9.43;;
75009;SDS011;63564;46.840;18.336;2023-06-22T07:06:32;15.57;;;9.90;;
75009;SDS011;63564;46.840;18.336;2023-06-22T07:09:33;14.73;;;9.43;;
75009;SDS011;63564;46.840;18.336;2023-06-22T07:12:34;15.10;;;9.55;;
75009;SDS011;63564;46.840;18.336;2023-06-22T07:15:34;15.17;;;9.83;;
75009;SDS011;63564;46.840;18.336;2023-06-22T07:18:35;14.83;;;9.73;;
75009;SDS011;63564;46.840;18.336;2023-06-22T07:21:35;16.50;;;9.60;;
75009;SDS011;63564;46.840;18.336;2023-06-22T07:24:35;15.90;;;9.60;;
75009;SDS011;63564;46.840;18.336;2023-06-22T07:27:37;15.75;;;9.80;;
75009;SDS011;63564;46.840;18.336;2023-06-22T07:30:40;18.80;;;9.70;;
75009;SDS011;63564;46.840;18.336;2023-06-22T07:33:40;18.33;;;9.70;;
75009;SDS011;63564;46.840;18.336;2023-06-22T07:36:40;18.10;;;10.00;;
75009;SDS011;63564;46.840;18.336;2023-06-22T07:39:41;17.03;;;9.80;;
75009;SDS011;63564;46.840;18.336;2023-06-22T07:42:42;15.48;;;9.85;;
75009;SDS011;63564;46.840;18.336;2023-06-22T07:45:47;15.37;;;9.37;;
75009;SDS011;63564;46.840;18.336;2023-06-22T07:48:52;15.35;;;9.55;;
75009;SDS011;63564;46.840;18.336;2023-06-22T07:51:52;14.83;;;9.23;;
75009;SDS011;63564;46.840;18.336;2023-06-22T07:54:52;15.10;;;9.37;;
75009;SDS011;63564;46.840;18.336;2023-06-22T07:57:53;17.27;;;9.43;;
75009;SDS011;63564;46.840;18.336;2023-06-22T08:00:53;14.57;;;9.30;;
75009;SDS011;63564;46.840;18.336;2023-06-22T08:03:54;15.10;;;9.33;;
75009;SDS011;63564;46.840;18.336;2023-06-22T08:06:54;16.17;;;9.53;;
75009;SDS011;63564;46.840;18.336;2023-06-22T08:09:54;14.50;;;9.50;;
75009;SDS011;63564;46.840;18.336;2023-06-22T08:12:55;14.90;;;9.37;;
75009;SDS011;63564;46.840;18.336;2023-06-22T08:15:55;14.50;;;9.40;;
75009;SDS011;63564;46.840;18.336;2023-06-22T08:18:55;16.17;;;9.90;;
75009;SDS011;63564;46.840;18.336;2023-06-22T08:21:56;16.60;;;9.85;;
75009;SDS011;63564;46.840;18.336;2023-06-22T08:24:57;14.33;;;9.20;;
75009;SDS011;63564;46.840;18.336;2023-06-22T08:27:58;13.80;;;9.07;;
75009;SDS011;63564;46.840;18.336;2023-06-22T08:30:59;14.77;;;9.50;;
75009;SDS011;63564;46.840;18.336;2023-06-22T08:34:00;16.92;;;9.75;;
75009;SDS011;63564;46.840;18.336;2023-06-22T08:37:00;14.70;;;9.00;;
75009;SDS011;63564;46.840;18.336;2023-06-22T08:40:02;15.40;;;9.73;;
75009;SDS011;63564;46.840;18.336;2023-06-22T08:43:10;16.45;;;9.85;;
75009;SDS011;63564;46.840;18.336;2023-06-22T08:46:10;14.20;;;9.07;;
75009;SDS011;63564;46.840;18.336;2023-06-22T08:49:11;15.00;;;9.50;;
75009;SDS011;63564;46.840;18.336;2023-06-22T08:52:11;14.07;;;9.17;;
75009;SDS011;63564;46.840;18.336;2023-06-22T08:55:12;14.80;;;9.43;;
75009;SDS011;63564;46.840;18.336;2023-06-22T08:58:12;16.07;;;9.20;;
75009;SDS011;63564;46.840;18.336;2023-06-22T09:01:13;13.17;;;8.67;;
75009;SDS011;63564;46.840;18.336;2023-06-22T09:04:15;14.70;;;9.32;;
75009;SDS011;63564;46.840;18.336;2023-06-22T09:07:15;13.83;;;9.03;;
75009;SDS011;63564;46.840;18.336;2023-06-22T09:10:22;16.67;;;9.35;;
75009;SDS011;63564;46.840;18.336;2023-06-22T09:13:22;16.23;;;9.43;;
75009;SDS011;63564;46.840;18.336;2023-06-22T09:16:23;13.53;;;9.07;;
75009;SDS011;63564;46.840;18.336;2023-06-22T09:19:23;13.90;;;9.10;;
75009;SDS011;63564;46.840;18.336;2023-06-22T09:22:23;14.27;;;9.13;;
75009;SDS011;63564;46.840;18.336;2023-06-22T09:25:28;13.00;;;9.00;;
75009;SDS011;63564;46.840;18.336;2023-06-22T09:28:29;13.70;;;9.20;;
75009;SDS011;63564;46.840;18.336;2023-06-22T09:31:29;14.83;;;9.43;;
75009;SDS011;63564;46.840;18.336;2023-06-22T09:34:30;15.00;;;9.83;;
75009;SDS011;63564;46.840;18.336;2023-06-22T09:37:31;13.35;;;9.10;;
75009;SDS011;63564;46.840;18.336;2023-06-22T09:40:31;13.93;;;9.20;;
75009;SDS011;63564;46.840;18.336;2023-06-22T09:43:35;14.97;;;10.03;;
75009;SDS011;63564;46.840;18.336;2023-06-22T09:46:36;13.63;;;9.07;;
75009;SDS011;63564;46.840;18.336;2023-06-22T09:49:36;15.43;;;9.37;;
75009;SDS011;63564;46.840;18.336;2023-06-22T09:52:36;15.37;;;9.40;;
75009;SDS011;63564;46.840;18.336;2023-06-22T09:55:37;15.65;;;9.43;;
75009;SDS011;63564;46.840;18.336;2023-06-22T09:58:37;14.10;;;9.77;;
75009;SDS011;63564;46.840;18.336;2023-06-22T10:01:38;16.50;;;10.07;;
75009;SDS011;63564;46.840;18.336;2023-06-22T10:04:38;14.63;;;9.40;;
75009;SDS011;63564;46.840;18.336;2023-06-22T10:07:40;14.52;;;9.38;;
75009;SDS011;63564;46.840;18.336;2023-06-22T10:10:43;16.58;;;10.45;;
75009;SDS011;63564;46.840;18.336;2023-06-22T10:13:43;14.13;;;9.23;;
75009;SDS011;63564;46.840;18.336;2023-06-22T10:16:43;14.10;;;9.43;;
75009;SDS011;63564;46.840;18.336;2023-06-22T10:19:44;18.57;;;11.93;;
75009;SDS011;63564;46.840;18.336;2023-06-22T10:22:44;15.37;;;10.20;;
75009;SDS011;63564;46.840;18.336;2023-06-22T10:25:45;15.98;;;9.82;;
75009;SDS011;63564;46.840;18.336;2023-06-22T10:28:46;12.77;;;9.57;;
75009;SDS011;63564;46.840;18.336;2023-06-22T10:31:46;13.52;;;9.15;;
75009;SDS011;63564;46.840;18.336;2023-06-22T10:34:47;14.13;;;9.53;;
75009;SDS011;63564;46.840;18.336;2023-06-22T10:37:48;15.50;;;9.77;;
75009;SDS011;63564;46.840;18.336;2023-06-22T10:40:48;14.13;;;8.95;;
75009;SDS011;63564;46.840;18.336;2023-06-22T10:43:48;13.23;;;9.33;;
75009;SDS011;63564;46.840;18.336;2023-06-22T10:46:49;13.47;;;9.60;;
75009;SDS011;63564;46.840;18.336;2023-06-22T10:49:49;13.73;;;9.33;;
75009;SDS011;63564;46.840;18.336;2023-06-22T10:52:50;14.67;;;9.10;;
75009;SDS011;63564;46.840;18.336;2023-06-22T10:55:50;14.07;;;9.70;;
75009;SDS011;63564;46.840;18.336;2023-06-22T10:58:51;14.20;;;8.98;;
75009;SDS011;63564;46.840;18.336;2023-06-22T11:01:51;14.47;;;9.17;;
75009;SDS011;63564;46.840;18.336;2023-06-22T11:04:52;12.93;;;9.10;;
75009;SDS011;63564;46.840;18.336;2023-06-22T11:07:53;12.87;;;9.70;;
75009;SDS011;63564;46.840;18.336;2023-06-22T11:10:53;15.00;;;10.17;;
75009;SDS011;63564;46.840;18.336;2023-06-22T11:13:54;12.90;;;9.17;;
75009;SDS011;63564;46.840;18.336;2023-06-22T11:16:54;15.17;;;9.70;;
75009;SDS011;63564;46.840;18.336;2023-06-22T11:19:54;14.47;;;9.27;;
75009;SDS011;63564;46.840;18.336;2023-06-22T11:22:55;13.52;;;9.35;;
75009;SDS011;63564;46.840;18.336;2023-06-22T11:25:55;12.40;;;8.70;;
75009;SDS011;63564;46.840;18.336;2023-06-22T11:28:56;13.23;;;9.33;;
75009;SDS011;63564;46.840;18.336;2023-06-22T11:31:56;12.13;;;8.80;;
75009;SDS011;63564;46.840;18.336;2023-06-22T11:34:57;14.90;;;9.77;;
75009;SDS011;63564;46.840;18.336;2023-06-22T11:37:57;13.70;;;8.87;;
75009;SDS011;63564;46.840;18.336;2023-06-22T11:40:58;13.98;;;9.18;;
75009;SDS011;63564;46.840;18.336;2023-06-22T11:43:58;12.53;;;8.83;;
75009;SDS011;63564;46.840;18.336;2023-06-22T11:46:59;12.10;;;8.80;;
75009;SDS011;63564;46.840;18.336;2023-06-22T11:50:00;13.05;;;8.88;;
75009;SDS011;63564;46.840;18.336;2023-06-22T11:53:02;13.00;;;8.93;;
75009;SDS011;63564;46.840;18.336;2023-06-22T11:56:03;12.18;;;8.00;;
75009;SDS011;63564;46.840;18.336;2023-06-22T11:59:03;12.40;;;8.33;;
75009;SDS011;63564;46.840;18.336;2023-06-22T12:02:03;13.65;;;8.30;;
75009;SDS011;63564;46.840;18.336;2023-06-22T12:05:06;11.83;;;8.97;;
75009;SDS011;63564;46.840;18.336;2023-06-22T12:08:07;12.38;;;8.15;;
75009;SDS011;63564;46.840;18.336;2023-06-22T12:11:08;12.13;;;8.17;;
75009;SDS011;63564;46.840;18.336;2023-06-22T12:14:08;13.07;;;9.47;;
75009;SDS011;63564;46.840;18.336;2023-06-22T12:17:09;13.50;;;8.48;;
75009;SDS011;63564;46.840;18.336;2023-06-22T12:20:09;12.93;;;8.90;;
75009;SDS011;63564;46.840;18.336;2023-06-22T12:23:10;14.03;;;8.57;;
75009;SDS011;63564;46.840;18.336;2023-06-22T12:26:10;12.00;;;8.10;;
75009;SDS011;63564;46.840;18.336;2023-06-22T12:29:11;13.47;;;7.80;;
75009;SDS011;63564;46.840;18.336;2023-06-22T12:32:11;13.17;;;8.73;;
75009;SDS011;63564;46.840;18.336;2023-06-22T12:35:15;11.33;;;8.60;;
75009;SDS011;63564;46.840;18.336;2023-06-22T12:38:15;12.13;;;8.47;;
75009;SDS011;63564;46.840;18.336;2023-06-22T12:41:15;13.60;;;8.80;;
75009;SDS011;63564;46.840;18.336;2023-06-22T12:44:16;13.20;;;8.93;;
75009;SDS011;63564;46.840;18.336;2023-06-22T12:47:17;12.65;;;8.50;;
75009;SDS011;63564;46.840;18.336;2023-06-22T12:50:17;12.70;;;7.87;;
75009;SDS011;63564;46.840;18.336;2023-06-22T12:53:18;12.73;;;7.87;;
75009;SDS011;63564;46.840;18.336;2023-06-22T12:56:18;12.43;;;8.30;;
75009;SDS011;63564;46.840;18.336;2023-06-22T12:59:18;12.23;;;8.33;;
75009;SDS011;63564;46.840;18.336;2023-06-22T13:02:19;10.43;;;6.77;;
75009;SDS011;63564;46.840;18.336;2023-06-22T13:05:19;11.67;;;7.50;;
75009;SDS011;63564;46.840;18.336;2023-06-22T13:08:20;11.60;;;7.23;;
75009;SDS011;63564;46.840;18.336;2023-06-22T13:11:20;10.33;;;7.40;;
75009;SDS011;63564;46.840;18.336;2023-06-22T13:14:21;12.23;;;7.77;;
75009;SDS011;63564;46.840;18.336;2023-06-22T13:17:21;11.73;;;7.03;;
75009;SDS011;63564;46.840;18.336;2023-06-22T13:20:22;11.13;;;7.23;;
75009;SDS011;63564;46.840;18.336;2023-06-22T13:23:22;11.70;;;7.50;;
75009;SDS011;63564;46.840;18.336;2023-06-22T13:26:22;13.13;;;7.90;;
75009;SDS011;63564;46.840;18.336;2023-06-22T13:29:23;11.47;;;7.10;;
75009;SDS011;63564;46.840;18.336;2023-06-22T13:32:23;11.00;;;7.60;;
75009;SDS011;63564;46.840;18.336;2023-06-22T13:35:24;12.80;;;7.07;;
75009;SDS011;63564;46.840;18.336;2023-06-22T13:38:24;10.80;;;7.30;;
75009;SDS011;63564;46.840;18.336;2023-06-22T13:41:24;11.60;;;7.33;;
75009;SDS011;63564;46.840;18.336;2023-06-22T13:44:25;11.05;;;6.93;;
75009;SDS011;63564;46.840;18.336;2023-06-22T13:47:29;10.47;;;7.07;;
75009;SDS011;63564;46.840;18.336;2023-06-22T13:50:30;12.23;;;6.60;;
75009;SDS011;63564;46.840;18.336;2023-06-22T13:53:30;10.30;;;7.53;;
75009;SDS011;63564;46.840;18.336;2023-06-22T13:56:31;10.63;;;6.72;;
75009;SDS011;63564;46.840;18.336;2023-06-22T13:59:32;11.37;;;7.00;;
75009;SDS011;63564;46.840;18.336;2023-06-22T14:02:32;12.00;;;7.10;;
75009;SDS011;63564;46.840;18.336;2023-06-22T14:05:33;11.57;;;6.30;;
75009;SDS011;63564;46.840;18.336;2023-06-22T14:08:33;11.57;;;7.23;;
75009;SDS011;63564;46.840;18.336;2023-06-22T14:11:33;10.70;;;6.30;;
75009;SDS011;63564;46.840;18.336;2023-06-22T14:14:34;12.33;;;7.00;;
75009;SDS011;63564;46.840;18.336;2023-06-22T14:17:34;10.23;;;6.60;;
75009;SDS011;63564;46.840;18.336;2023-06-22T14:20:35;11.27;;;6.67;;
75009;SDS011;63564;46.840;18.336;2023-06-22T14:23:35;12.13;;;6.87;;
75009;SDS011;63564;46.840;18.336;2023-06-22T14:26:37;13.60;;;6.72;;
75009;SDS011;63564;46.840;18.336;2023-06-22T14:29:37;10.23;;;6.87;;
75009;SDS011;63564;46.840;18.336;2023-06-22T14:32:38;10.57;;;6.67;;
75009;SDS011;63564;46.840;18.336;2023-06-22T14:35:38;11.43;;;6.73;;
75009;SDS011;63564;46.840;18.336;2023-06-22T14:38:39;9.63;;;6.47;;
75009;SDS011;63564;46.840;18.336;2023-06-22T14:41:39;11.30;;;6.23;;
75009;SDS011;63564;46.840;18.336;2023-06-22T14:44:39;9.90;;;6.47;;
75009;SDS011;63564;46.840;18.336;2023-06-22T14:47:40;9.73;;;6.27;;
75009;SDS011;63564;46.840;18.336;2023-06-22T14:50:40;10.50;;;6.60;;
75009;SDS011;63564;46.840;18.336;2023-06-22T14:53:41;9.77;;;6.27;;
75009;SDS011;63564;46.840;18.336;2023-06-22T14:56:42;12.25;;;6.13;;
75009;SDS011;63564;46.840;18.336;2023-06-22T14:59:43;10.38;;;6.03;;
75009;SDS011;63564;46.840;18.336;2023-06-22T15:02:43;11.20;;;6.83;;
75009;SDS011;63564;46.840;18.336;2023-06-22T15:05:45;10.43;;;6.30;;
75009;SDS011;63564;46.840;18.336;2023-06-22T15:08:45;12.65;;;6.78;;
75009;SDS011;63564;46.840;18.336;2023-06-22T15:11:46;10.27;;;6.33;;
75009;SDS011;63564;46.840;18.336;2023-06-22T15:14:46;11.57;;;7.27;;
75009;SDS011;63564;46.840;18.336;2023-06-22T15:17:46;12.73;;;7.10;;
75009;SDS011;63564;46.840;18.336;2023-06-22T15:20:47;11.47;;;7.20;;
75009;SDS011;63564;46.840;18.336;2023-06-22T15:23:48;11.25;;;7.15;;
75009;SDS011;63564;46.840;18.336;2023-06-22T15:26:48;11.93;;;7.20;;
75009;SDS011;63564;46.840;18.336;2023-06-22T15:29:48;11.57;;;7.23;;
75009;SDS011;63564;46.840;18.336;2023-06-22T15:32:49;10.97;;;7.33;;
75009;SDS011;63564;46.840;18.336;2023-06-22T15:35:49;11.60;;;7.23;;
75009;SDS011;63564;46.840;18.336;2023-06-22T15:38:50;12.67;;;7.17;;
75009;SDS011;63564;46.840;18.336;2023-06-22T15:41:50;14.93;;;7.20;;
75009;SDS011;63564;46.840;18.336;2023-06-22T15:44:54;13.38;;;7.72;;
75009;SDS011;63564;46.840;18.336;2023-06-22T15:47:54;12.27;;;7.23;;
75009;SDS011;63564;46.840;18.336;2023-06-22T15:50:54;11.83;;;7.50;;
75009;SDS011;63564;46.840;18.336;2023-06-22T15:53:55;13.80;;;7.57;;
75009;SDS011;63564;46.840;18.336;2023-06-22T15:56:55;12.40;;;7.43;;
75009;SDS011;63564;46.840;18.336;2023-06-22T15:59:56;11.95;;;8.07;;
75009;SDS011;63564;46.840;18.336;2023-06-22T16:02:56;11.67;;;7.17;;
75009;SDS011;63564;46.840;18.336;2023-06-22T16:05:57;13.43;;;7.97;;
75009;SDS011;63564;46.840;18.336;2023-06-22T16:08:57;12.98;;;7.55;;
75009;SDS011;63564;46.840;18.336;2023-06-22T16:11:58;14.37;;;7.80;;
75009;SDS011;63564;46.840;18.336;2023-06-22T16:14:59;11.90;;;7.73;;
75009;SDS011;63564;46.840;18.336;2023-06-22T16:17:59;14.57;;;7.53;;
75009;SDS011;63564;46.840;18.336;2023-06-22T16:20:59;11.17;;;7.10;;
75009;SDS011;63564;46.840;18.336;2023-06-22T16:24:00;12.90;;;8.03;;
75009;SDS011;63564;46.840;18.336;2023-06-22T16:27:00;11.03;;;7.07;;
75009;SDS011;63564;46.840;18.336;2023-06-22T16:30:01;11.13;;;7.27;;
75009;SDS011;63564;46.840;18.336;2023-06-22T16:33:01;13.17;;;7.47;;
75009;SDS011;63564;46.840;18.336;2023-06-22T16:36:02;13.77;;;7.15;;
75009;SDS011;63564;46.840;18.336;2023-06-22T16:39:02;11.10;;;7.50;;
75009;SDS011;63564;46.840;18.336;2023-06-22T16:42:03;10.63;;;6.78;;
75009;SDS011;63564;46.840;18.336;2023-06-22T16:45:04;12.97;;;7.60;;
75009;SDS011;63564;46.840;18.336;2023-06-22T16:48:05;12.35;;;7.43;;
75009;SDS011;63564;46.840;18.336;2023-06-22T16:51:06;12.93;;;7.70;;
75009;SDS011;63564;46.840;18.336;2023-06-22T16:54:07;10.77;;;6.88;;
75009;SDS011;63564;46.840;18.336;2023-06-22T16:57:07;13.73;;;7.40;;
75009;SDS011;63564;46.840;18.336;2023-06-22T17:00:09;12.25;;;7.03;;
75009;SDS011;63564;46.840;18.336;2023-06-22T17:03:14;11.57;;;7.15;;
75009;SDS011;63564;46.840;18.336;2023-06-22T17:06:19;12.15;;;6.90;;
75009;SDS011;63564;46.840;18.336;2023-06-22T17:09:19;12.37;;;6.90;;
75009;SDS011;63564;46.840;18.336;2023-06-22T17:12:22;11.30;;;7.17;;
75009;SDS011;63564;46.840;18.336;2023-06-22T17:15:23;11.10;;;7.43;;
75009;SDS011;63564;46.840;18.336;2023-06-22T17:18:24;14.27;;;8.02;;
75009;SDS011;63564;46.840;18.336;2023-06-22T17:21:26;13.77;;;7.90;;
75009;SDS011;63564;46.840;18.336;2023-06-22T17:24:27;12.33;;;7.87;;
75009;SDS011;63564;46.840;18.336;2023-06-22T17:27:28;11.37;;;7.47;;
75009;SDS011;63564;46.840;18.336;2023-06-22T17:30:29;14.50;;;7.97;;
75009;SDS011;63564;46.840;18.336;2023-06-22T17:33:30;14.52;;;7.97;;
75009;SDS011;63564;46.840;18.336;2023-06-22T17:36:31;13.48;;;8.27;;
75009;SDS011;63564;46.840;18.336;2023-06-22T17:39:32;12.47;;;7.67;;
75009;SDS011;63564;46.840;18.336;2023-06-22T17:42:32;13.03;;;7.73;;
75009;SDS011;63564;46.840;18.336;2023-06-22T17:45:39;13.10;;;7.87;;